West Lorne, Canada
Current Conditions -  °F | °C
As of 5:00 AM on Friday 21 Nov 2014 (Local Time) from CYCK Reporting Station
Clear Clear  
Wind Chill:   Ceiling: Unl
Heat Index: 12°   Visibility: 9mi
Dew Point: 10°   Wind: 6mph
Humidity: 92%   Direction: 300°WNW
Pressure: 30.29"   Gusts: NA
Location:  42.6°N, 81.6°W
Report Text: CYCK 211000Z AUTO 30005KT 9SM CLR M11/M12 A3029 RMK SLP269
Loading
Personal Weather Stations






























Interactive Weather Map New forecast layout! Learn more

10-Day Weather Forecast

Advertisements
Track Severe Weather on mobile